createdAt,value
2022-11-06T00:00:21.815Z,10.95
2022-11-06T00:02:23.515Z,7.80
2022-11-06T00:04:25.275Z,8.60
2022-11-06T00:06:46.027Z,8.38
2022-11-06T00:08:47.575Z,8.27
2022-11-06T00:10:49.183Z,8.60
2022-11-06T00:12:50.977Z,7.30
2022-11-06T00:14:52.533Z,6.45
2022-11-06T00:16:54.157Z,6.03
2022-11-06T00:18:56.269Z,5.50
2022-11-06T00:20:58.073Z,5.80
2022-11-06T00:23:00.555Z,5.07
2022-11-06T00:25:03.106Z,4.38
2022-11-06T00:27:04.768Z,4.05
2022-11-06T00:29:07.035Z,4.00
2022-11-06T00:31:11.733Z,3.70
2022-11-06T00:33:13.529Z,3.10
2022-11-06T00:35:15.138Z,3.42
2022-11-06T00:37:16.788Z,4.68
2022-11-06T00:39:18.403Z,3.83
2022-11-06T00:41:20.822Z,3.42
2022-11-06T00:43:22.490Z,3.10
2022-11-06T00:45:25.544Z,2.75
2022-11-06T00:47:27.216Z,2.20
2022-11-06T00:49:29.067Z,2.17
2022-11-06T00:51:33.395Z,2.10
2022-11-06T00:53:35.280Z,2.00
2022-11-06T00:55:36.840Z,2.22
2022-11-06T00:57:38.433Z,2.97
2022-11-06T00:59:40.041Z,3.72
2022-11-06T01:01:44.272Z,4.43
2022-11-06T01:03:47.743Z,5.55
2022-11-06T01:05:49.358Z,5.95
2022-11-06T01:07:50.986Z,8.55
2022-11-06T01:09:52.598Z,8.70
2022-11-06T01:12:13.946Z,7.03
2022-11-06T01:14:17.923Z,8.23
2022-11-06T01:16:20.146Z,6.55
2022-11-06T01:18:21.776Z,7.68
2022-11-06T01:20:23.381Z,5.93
2022-11-06T01:22:25.180Z,6.70
2022-11-06T01:24:28.327Z,4.97
2022-11-06T01:26:38.286Z,4.53
2022-11-06T01:28:40.962Z,4.50
2022-11-06T01:30:42.566Z,4.20
2022-11-06T01:32:44.183Z,4.38
2022-11-06T01:34:46.906Z,4.90
2022-11-06T01:36:48.496Z,4.43
2022-11-06T01:38:52.323Z,4.82
2022-11-06T01:40:54.463Z,5.38
2022-11-06T01:42:56.072Z,3.95
2022-11-06T01:45:16.497Z,3.20
2022-11-06T01:47:29.139Z,3.10
2022-11-06T01:49:36.784Z,2.38
2022-11-06T01:51:51.167Z,2.85
2022-11-06T01:53:53.927Z,2.75
2022-11-06T01:55:59.693Z,3.00
2022-11-06T01:58:02.625Z,2.83
2022-11-06T02:00:05.962Z,2.30
2022-11-06T02:02:07.779Z,2.92
2022-11-06T02:04:11.009Z,2.72
2022-11-06T02:06:12.904Z,2.70
2022-11-06T02:08:16.959Z,2.80
2022-11-06T02:10:18.582Z,2.25
2022-11-06T02:12:47.469Z,2.22
2022-11-06T02:15:01.161Z,2.42
2022-11-06T02:17:31.676Z,2.88
2022-11-06T02:19:54.755Z,2.25
2022-11-06T02:22:16.103Z,2.15
2022-11-06T02:24:38.005Z,2.00
2022-11-06T02:26:58.144Z,1.80
2022-11-06T02:29:04.837Z,2.35
2022-11-06T02:31:13.648Z,2.33
2022-11-06T02:33:28.178Z,2.10
2022-11-06T02:35:36.093Z,2.63
2022-11-06T02:37:39.513Z,1.77
2022-11-06T02:39:42.745Z,2.05
2022-11-06T02:41:46.585Z,2.15
2022-11-06T02:43:55.503Z,2.17
2022-11-06T02:46:19.105Z,1.83
2022-11-06T02:48:25.969Z,2.00
2022-11-06T02:50:32.407Z,2.35
2022-11-06T02:53:04.734Z,2.65
2022-11-06T02:55:11.944Z,2.60
2022-11-06T02:57:15.834Z,3.08
2022-11-06T02:59:28.570Z,3.83
2022-11-06T03:01:34.917Z,2.40
2022-11-06T03:03:41.279Z,2.13
2022-11-06T03:05:54.332Z,2.58
2022-11-06T03:08:41.958Z,2.00
2022-11-06T03:11:07.325Z,2.35
2022-11-06T03:13:18.608Z,2.25
2022-11-06T03:16:04.951Z,2.38
2022-11-06T03:18:13.541Z,2.63
2022-11-06T03:20:18.670Z,2.78
2022-11-06T03:22:31.565Z,2.75
2022-11-06T03:24:51.471Z,1.80
2022-11-06T03:26:53.663Z,2.00
2022-11-06T03:29:10.645Z,1.90
2022-11-06T03:31:16.165Z,2.17
2022-11-06T03:33:41.509Z,2.97
2022-11-06T03:35:51.136Z,1.90
2022-11-06T03:38:03.866Z,2.90
2022-11-06T03:40:08.962Z,2.15
2022-11-06T03:42:13.339Z,1.92
2022-11-06T03:44:18.044Z,1.73
2022-11-06T03:46:24.941Z,2.60
2022-11-06T03:48:38.732Z,2.00
2022-11-06T03:50:51.575Z,2.45
2022-11-06T03:52:56.897Z,2.70
2022-11-06T03:55:19.701Z,2.75
2022-11-06T03:57:30.379Z,1.92
2022-11-06T03:59:42.624Z,2.85
2022-11-06T04:01:45.917Z,2.47
2022-11-06T04:03:58.261Z,1.80
2022-11-06T04:06:16.710Z,2.08
2022-11-06T04:08:40.596Z,2.30
2022-11-06T04:11:03.895Z,1.85
2022-11-06T04:13:24.157Z,1.70
2022-11-06T04:15:26.214Z,1.67
2022-11-06T04:17:29.545Z,2.28
2022-11-06T04:19:31.154Z,2.20
2022-11-06T04:21:32.718Z,1.80
2022-11-06T04:24:37.540Z,1.50
2022-11-06T04:26:48.128Z,2.00
2022-11-06T04:29:02.143Z,1.92
2022-11-06T04:31:26.121Z,1.60
2022-11-06T04:33:47.964Z,2.05
2022-11-06T04:36:14.118Z,2.10
2022-11-06T04:38:30.927Z,2.25
2022-11-06T04:40:54.597Z,2.38
2022-11-06T04:43:00.565Z,2.15
2022-11-06T04:45:06.599Z,2.05
2022-11-06T04:47:10.245Z,2.72
2022-11-06T04:49:13.159Z,2.00
2022-11-06T04:51:15.712Z,2.10
2022-11-06T04:53:18.895Z,2.30
2022-11-06T04:55:22.100Z,1.80
2022-11-06T04:57:24.645Z,1.90
2022-11-06T04:59:26.811Z,2.08
2022-11-06T05:01:28.526Z,2.20
2022-11-06T05:03:30.377Z,1.83
2022-11-06T05:05:32.361Z,2.30
2022-11-06T05:07:33.962Z,1.67
2022-11-06T05:09:35.524Z,1.83
2022-11-06T05:11:38.444Z,2.03
2022-11-06T05:13:40.185Z,2.08
2022-11-06T05:15:42.057Z,2.00
2022-11-06T05:17:43.749Z,2.08
2022-11-06T05:19:45.344Z,2.42
2022-11-06T05:22:05.551Z,2.38
2022-11-06T05:24:07.466Z,2.08
2022-11-06T05:26:09.364Z,2.30
2022-11-06T05:28:11.318Z,2.00
2022-11-06T05:30:13.311Z,2.08
2022-11-06T05:32:14.909Z,2.00
2022-11-06T05:34:16.518Z,2.15
2022-11-06T05:36:18.221Z,2.22
2022-11-06T05:38:20.075Z,2.28
2022-11-06T05:40:21.622Z,2.67
2022-11-06T05:42:23.268Z,2.75
2022-11-06T05:44:27.720Z,2.17
2022-11-06T05:46:47.691Z,3.00
2022-11-06T05:48:50.137Z,2.35
2022-11-06T05:50:51.745Z,2.35
2022-11-06T05:52:53.331Z,2.58
2022-11-06T05:54:54.960Z,2.42
2022-11-06T05:56:56.568Z,2.22
2022-11-06T05:58:58.199Z,2.47
2022-11-06T06:00:59.905Z,2.10
2022-11-06T06:03:02.463Z,2.00
2022-11-06T06:05:05.404Z,1.60
2022-11-06T06:07:07.032Z,2.67
2022-11-06T06:09:08.671Z,2.70
2022-11-06T06:11:10.331Z,2.83
2022-11-06T06:13:12.339Z,2.45
2022-11-06T06:15:15.155Z,2.42
2022-11-06T06:17:16.742Z,2.33
2022-11-06T06:19:18.347Z,2.15
2022-11-06T06:21:20.026Z,2.38
2022-11-06T06:23:21.686Z,1.63
2022-11-06T06:25:23.701Z,3.15
2022-11-06T06:27:27.647Z,2.05
2022-11-06T06:29:29.375Z,3.03
2022-11-06T06:31:30.987Z,2.38
2022-11-06T06:33:32.797Z,1.40
2022-11-06T06:35:34.855Z,2.55
2022-11-06T06:37:36.593Z,2.17
2022-11-06T06:39:38.137Z,2.45
2022-11-06T06:41:39.702Z,2.45
2022-11-06T06:43:41.263Z,2.42
2022-11-06T06:45:42.847Z,3.10
2022-11-06T06:47:44.490Z,4.18
2022-11-06T06:49:46.343Z,4.03
2022-11-06T06:51:48.965Z,4.00
2022-11-06T06:53:50.657Z,2.70
2022-11-06T06:55:52.449Z,2.85
2022-11-06T06:58:00.914Z,3.38
2022-11-06T07:00:02.518Z,2.85
2022-11-06T07:02:04.349Z,2.70
2022-11-06T07:04:06.585Z,2.38
2022-11-06T07:06:08.373Z,3.10
2022-11-06T07:08:10.307Z,3.67
2022-11-06T07:10:12.080Z,3.65
2022-11-06T07:12:13.863Z,3.83
2022-11-06T07:14:15.795Z,3.15
2022-11-06T07:16:17.396Z,3.22
2022-11-06T07:18:19.092Z,5.28
2022-11-06T07:20:21.854Z,3.28
2022-11-06T07:22:33.743Z,3.20
2022-11-06T07:24:38.497Z,3.03
2022-11-06T07:26:40.108Z,3.35
2022-11-06T07:28:41.771Z,3.10
2022-11-06T07:30:43.350Z,3.83
2022-11-06T07:32:45.090Z,3.60
2022-11-06T07:34:46.720Z,3.63
2022-11-06T07:36:48.319Z,3.15
2022-11-06T07:38:50.007Z,3.70
2022-11-06T07:40:51.710Z,3.83
2022-11-06T07:42:53.304Z,2.95
2022-11-06T07:44:55.603Z,2.70
2022-11-06T07:46:57.291Z,4.00
2022-11-06T07:48:58.953Z,3.20
2022-11-06T07:51:06.070Z,3.10
2022-11-06T07:53:08.046Z,3.25
2022-11-06T07:55:09.700Z,4.05
2022-11-06T07:57:11.674Z,3.53
2022-11-06T07:59:13.439Z,3.60
2022-11-06T08:01:18.554Z,3.42
2022-11-06T08:03:21.195Z,3.38
2022-11-06T08:05:22.816Z,3.42
2022-11-06T08:07:24.431Z,2.15
2022-11-06T08:09:25.992Z,2.30
2022-11-06T08:11:27.766Z,3.17
2022-11-06T08:13:29.591Z,2.90
2022-11-06T08:15:31.277Z,2.75
2022-11-06T08:17:32.903Z,2.20
2022-11-06T08:19:34.584Z,2.38
2022-11-06T08:21:36.169Z,2.45
2022-11-06T08:23:37.813Z,2.28
2022-11-06T08:25:39.783Z,2.35
2022-11-06T08:27:41.428Z,3.10
2022-11-06T08:29:43.114Z,2.25
2022-11-06T08:31:44.865Z,2.45
2022-11-06T08:33:46.954Z,2.00
2022-11-06T08:35:48.755Z,2.17
2022-11-06T08:37:50.375Z,2.40
2022-11-06T08:39:51.974Z,2.55
2022-11-06T08:41:53.601Z,2.75
2022-11-06T08:43:55.270Z,2.40
2022-11-06T08:45:56.978Z,2.33
2022-11-06T08:48:02.811Z,2.88
2022-11-06T08:50:06.350Z,2.65
2022-11-06T08:52:07.943Z,2.40
2022-11-06T08:54:11.093Z,2.00
2022-11-06T08:56:12.909Z,2.20
2022-11-06T08:58:14.605Z,1.65
2022-11-06T09:00:16.599Z,2.42
2022-11-06T09:02:18.283Z,2.22
2022-11-06T09:04:19.986Z,2.03
2022-11-06T09:06:21.638Z,2.75
2022-11-06T09:08:24.308Z,2.67
2022-11-06T09:10:26.829Z,2.67
2022-11-06T09:12:28.448Z,1.85
2022-11-06T09:14:30.043Z,1.73
2022-11-06T09:16:31.675Z,1.65
2022-11-06T09:18:33.447Z,2.78
2022-11-06T09:20:35.097Z,1.77
2022-11-06T09:22:36.744Z,2.22
2022-11-06T09:25:01.814Z,1.65
2022-11-06T09:27:03.207Z,2.20
2022-11-06T09:29:04.817Z,1.83
2022-11-06T09:31:06.764Z,2.15
2022-11-06T09:33:13.327Z,2.22
2022-11-06T09:35:15.955Z,1.90
2022-11-06T09:37:17.628Z,1.92
2022-11-06T09:39:19.288Z,2.13
2022-11-06T09:41:53.055Z,1.70
2022-11-06T09:44:05.824Z,3.58
2022-11-06T09:46:27.897Z,2.10
2022-11-06T09:48:35.059Z,2.33
2022-11-06T09:50:45.084Z,1.40
2022-11-06T09:52:51.191Z,2.03
2022-11-06T09:54:59.441Z,1.58
2022-11-06T09:57:19.560Z,1.73
2022-11-06T09:59:21.309Z,2.45
2022-11-06T10:01:27.514Z,1.95
2022-11-06T10:03:32.429Z,1.98
2022-11-06T10:05:36.274Z,1.48
2022-11-06T10:07:40.163Z,1.38
2022-11-06T10:09:41.767Z,1.23
2022-11-06T10:12:08.600Z,1.58
2022-11-06T10:14:19.954Z,1.10
2022-11-06T10:16:36.008Z,1.20
2022-11-06T10:19:01.558Z,1.20
2022-11-06T10:21:12.094Z,1.10
2022-11-06T10:23:19.100Z,1.23
2022-11-06T10:25:22.886Z,1.08
2022-11-06T10:28:03.788Z,1.45
2022-11-06T10:30:12.013Z,1.00
2022-11-06T10:32:25.405Z,1.50
2022-11-06T10:34:54.910Z,1.38
2022-11-06T10:37:11.393Z,0.80
2022-11-06T10:39:19.833Z,1.25
2022-11-06T10:41:25.753Z,1.15
2022-11-06T10:43:42.458Z,1.55
2022-11-06T10:45:49.785Z,1.92
2022-11-06T10:47:59.205Z,1.60
2022-11-06T10:50:05.463Z,1.92
2022-11-06T10:52:25.635Z,1.50
2022-11-06T10:54:36.219Z,1.10
2022-11-06T10:56:49.752Z,0.95
2022-11-06T10:58:52.520Z,0.80
2022-11-06T11:00:57.269Z,1.20
2022-11-06T11:03:25.037Z,0.85
2022-11-06T11:05:27.946Z,1.00
2022-11-06T11:07:31.660Z,0.80
2022-11-06T11:09:34.254Z,0.80
2022-11-06T11:11:35.919Z,0.82
2022-11-06T11:13:37.551Z,1.10
2022-11-06T11:15:48.258Z,1.00
2022-11-06T11:18:34.128Z,0.98
2022-11-06T11:20:40.348Z,1.02
2022-11-06T11:22:42.058Z,0.95
2022-11-06T11:25:03.363Z,1.00
2022-11-06T11:27:07.093Z,1.40
2022-11-06T11:29:13.903Z,0.93
2022-11-06T11:31:16.904Z,0.95
2022-11-06T11:33:20.878Z,0.85
2022-11-06T11:35:29.441Z,0.80
2022-11-06T11:37:36.200Z,1.02
2022-11-06T11:39:42.524Z,0.90
2022-11-06T11:41:44.129Z,1.13
2022-11-06T11:44:10.860Z,1.13
2022-11-06T11:46:20.870Z,1.13
2022-11-06T11:48:22.618Z,1.10
2022-11-06T11:50:33.793Z,1.30
2022-11-06T11:52:38.313Z,0.90
2022-11-06T11:54:40.508Z,1.20
2022-11-06T11:57:05.768Z,0.82
2022-11-06T11:59:16.781Z,0.90
2022-11-06T12:01:19.189Z,0.82
2022-11-06T12:03:22.989Z,1.13
2022-11-06T12:05:28.907Z,1.20
2022-11-06T12:07:36.026Z,0.80
2022-11-06T12:09:44.798Z,1.10
2022-11-06T12:11:46.816Z,1.10
2022-11-06T12:14:22.327Z,0.93
2022-11-06T12:16:24.059Z,0.93
2022-11-06T12:18:32.692Z,0.88
2022-11-06T12:20:46.299Z,1.20
2022-11-06T12:22:50.978Z,0.93
2022-11-06T12:25:00.328Z,0.95
2022-11-06T12:27:11.293Z,1.00
2022-11-06T12:29:15.860Z,1.00
2022-11-06T12:31:31.251Z,1.15
2022-11-06T12:34:04.544Z,1.10
2022-11-06T12:36:01.453Z,1.70
2022-11-06T12:38:26.717Z,1.75
2022-11-06T12:40:31.239Z,1.23
2022-11-06T12:42:34.046Z,1.08
2022-11-06T12:44:35.661Z,1.35
2022-11-06T12:46:59.093Z,1.20
2022-11-06T12:49:28.460Z,0.88
2022-11-06T12:52:07.562Z,1.25
2022-11-06T12:54:43.027Z,1.15
2022-11-06T12:57:22.047Z,1.00
2022-11-06T12:59:29.723Z,1.13
2022-11-06T13:02:16.331Z,1.10
2022-11-06T13:04:28.860Z,0.90
2022-11-06T13:06:36.417Z,1.08
2022-11-06T13:08:55.938Z,0.90
2022-11-06T13:11:08.278Z,0.80
2022-11-06T13:13:41.944Z,0.93
2022-11-06T13:16:15.558Z,1.17
2022-11-06T13:18:35.975Z,1.30
2022-11-06T13:20:54.461Z,1.02
2022-11-06T13:23:25.015Z,1.17
2022-11-06T13:25:39.842Z,1.17
2022-11-06T13:27:50.214Z,1.15
2022-11-06T13:29:52.372Z,1.10
2022-11-06T13:32:03.560Z,1.00
2022-11-06T13:34:06.233Z,1.27
2022-11-06T13:36:08.412Z,1.27
2022-11-06T13:38:16.783Z,0.85
2022-11-06T13:40:37.212Z,1.17
2022-11-06T13:42:43.249Z,0.95
2022-11-06T13:44:45.030Z,1.55
2022-11-06T13:47:31.652Z,1.58
2022-11-06T13:49:45.771Z,1.05
2022-11-06T13:52:02.262Z,1.10
2022-11-06T13:54:10.908Z,1.85
2022-11-06T13:56:15.808Z,1.75
2022-11-06T13:58:42.362Z,1.00
2022-11-06T14:00:49.931Z,1.00
2022-11-06T14:02:57.867Z,1.33
2022-11-06T14:05:18.436Z,1.80
2022-11-06T14:07:20.993Z,1.30
2022-11-06T14:09:25.018Z,1.33
2022-11-06T14:11:32.560Z,1.20
2022-11-06T14:13:35.524Z,0.95
2022-11-06T14:15:39.816Z,0.93
2022-11-06T14:17:41.647Z,0.90
2022-11-06T14:20:05.793Z,1.00
2022-11-06T14:22:35.253Z,1.15
2022-11-06T14:24:41.087Z,1.00
2022-11-06T14:26:43.690Z,1.10
2022-11-06T14:28:45.384Z,1.13
2022-11-06T14:33:40.567Z,1.25
2022-11-06T14:35:42.180Z,0.93
2022-11-06T14:37:43.829Z,0.80
2022-11-06T14:39:54.150Z,1.17
2022-11-06T14:41:57.313Z,1.00
2022-11-06T14:44:03.908Z,1.35
2022-11-06T14:46:21.903Z,1.60
2022-11-06T14:48:48.262Z,1.50
2022-11-06T14:50:50.173Z,1.33
2022-11-06T14:52:56.008Z,1.15
2022-11-06T14:55:05.143Z,1.50
2022-11-06T14:57:09.625Z,1.33
2022-11-06T14:59:27.873Z,1.80
2022-11-06T15:01:32.743Z,0.90
2022-11-06T15:03:42.225Z,1.52
2022-11-06T15:05:45.984Z,1.00
2022-11-06T15:08:06.245Z,1.20
2022-11-06T15:10:42.680Z,1.40
2022-11-06T15:13:10.522Z,1.40
2022-11-06T15:15:19.408Z,1.73
2022-11-06T15:17:21.993Z,1.30
2022-11-06T15:19:28.207Z,1.40
2022-11-06T15:21:49.452Z,1.60
2022-11-06T15:24:03.918Z,1.23
2022-11-06T15:26:15.520Z,1.48
2022-11-06T15:28:27.319Z,2.28
2022-11-06T15:30:29.538Z,1.63
2022-11-06T15:32:35.847Z,1.75
2022-11-06T15:34:48.249Z,1.67
2022-11-06T15:36:53.618Z,2.67
2022-11-06T15:38:55.297Z,1.92
2022-11-06T15:40:56.992Z,1.90
2022-11-06T15:43:01.881Z,1.38
2022-11-06T15:45:24.688Z,2.10
2022-11-06T15:47:29.261Z,1.20
2022-11-06T15:49:30.983Z,1.25
2022-11-06T15:51:32.662Z,1.42
2022-11-06T15:53:39.776Z,1.05
2022-11-06T15:56:02.080Z,1.30
2022-11-06T15:58:30.558Z,1.20
2022-11-06T16:00:35.849Z,1.50
2022-11-06T16:02:56.728Z,1.05
2022-11-06T16:04:58.403Z,1.30
2022-11-06T16:07:05.771Z,1.30
2022-11-06T16:09:14.165Z,1.67
2022-11-06T16:11:17.906Z,1.90
2022-11-06T16:13:21.568Z,1.58
2022-11-06T16:16:02.269Z,1.40
2022-11-06T16:18:05.652Z,1.30
2022-11-06T16:20:12.951Z,1.02
2022-11-06T16:22:17.793Z,1.38
2022-11-06T16:24:19.483Z,1.77
2022-11-06T16:26:47.494Z,1.20
2022-11-06T16:28:50.960Z,1.27
2022-11-06T16:30:52.661Z,1.10
2022-11-06T16:32:54.439Z,1.05
2022-11-06T16:34:56.193Z,1.17
2022-11-06T16:37:06.140Z,1.13
2022-11-06T16:39:47.682Z,1.35
2022-11-06T16:42:22.574Z,1.20
2022-11-06T16:44:31.623Z,1.23
2022-11-06T16:47:04.691Z,1.42
2022-11-06T16:49:35.529Z,2.35
2022-11-06T16:51:37.190Z,1.65
2022-11-06T16:53:53.059Z,1.40
2022-11-06T16:55:57.010Z,1.27
2022-11-06T16:58:01.579Z,1.27
2022-11-06T17:00:22.329Z,1.67
2022-11-06T17:02:26.253Z,1.50
2022-11-06T17:04:31.225Z,1.48
2022-11-06T17:06:35.071Z,1.92
2022-11-06T17:08:39.027Z,1.58
2022-11-06T17:10:42.365Z,1.40
2022-11-06T17:12:44.125Z,1.33
2022-11-06T17:14:46.981Z,3.20
2022-11-06T17:16:59.672Z,8.68
2022-11-06T17:19:01.259Z,4.10
2022-11-06T17:21:06.188Z,3.95
2022-11-06T17:23:15.803Z,6.60
2022-11-06T17:25:18.023Z,4.20
2022-11-06T17:27:19.635Z,2.90
2022-11-06T17:29:22.459Z,2.03
2022-11-06T17:31:24.993Z,1.80
2022-11-06T17:33:26.789Z,1.27
2022-11-06T17:35:28.424Z,1.60
2022-11-06T17:37:30.596Z,1.70
2022-11-06T17:39:32.965Z,1.90
2022-11-06T17:41:34.648Z,2.38
2022-11-06T17:43:36.499Z,2.47
2022-11-06T17:45:39.639Z,2.75
2022-11-06T17:47:41.386Z,2.47
2022-11-06T17:49:43.149Z,2.88
2022-11-06T17:51:52.878Z,3.08
2022-11-06T17:53:54.821Z,2.20
2022-11-06T17:55:56.417Z,2.45
2022-11-06T17:57:58.062Z,2.22
2022-11-06T17:59:59.700Z,2.72
2022-11-06T18:02:01.978Z,2.47
2022-11-06T18:04:04.233Z,1.98
2022-11-06T18:06:06.089Z,1.70
2022-11-06T18:08:12.237Z,2.05
2022-11-06T18:10:14.070Z,2.10
2022-11-06T18:12:17.628Z,1.80
2022-11-06T18:14:20.371Z,1.80
2022-11-06T18:16:24.542Z,2.17
2022-11-06T18:18:26.247Z,2.20
2022-11-06T18:20:27.933Z,2.20
2022-11-06T18:22:29.624Z,2.95
2022-11-06T18:24:31.281Z,2.63
2022-11-06T18:26:32.995Z,2.20
2022-11-06T18:28:34.658Z,2.95
2022-11-06T18:30:39.303Z,3.65
2022-11-06T18:32:41.092Z,2.70
2022-11-06T18:34:42.760Z,2.70
2022-11-06T18:36:44.374Z,2.25
2022-11-06T18:38:46.041Z,1.73
2022-11-06T18:40:51.567Z,2.40
2022-11-06T18:42:55.067Z,2.10
2022-11-06T18:44:56.673Z,1.98
2022-11-06T18:46:58.318Z,2.10
2022-11-06T18:49:00.212Z,2.45
2022-11-06T18:51:13.557Z,1.85
2022-11-06T18:53:15.636Z,1.92
2022-11-06T18:55:17.232Z,2.10
2022-11-06T18:57:18.966Z,1.80
2022-11-06T18:59:20.829Z,1.95
2022-11-06T19:01:25.915Z,1.60
2022-11-06T19:03:27.712Z,1.77
2022-11-06T19:05:34.346Z,2.03
2022-11-06T19:07:36.247Z,1.70
2022-11-06T19:09:37.867Z,2.25
2022-11-06T19:11:39.594Z,1.98
2022-11-06T19:13:46.448Z,1.90
2022-11-06T19:15:49.413Z,1.52
2022-11-06T19:17:53.416Z,2.05
2022-11-06T19:19:54.989Z,2.78
2022-11-06T19:21:56.658Z,2.58
2022-11-06T19:24:06.019Z,2.38
2022-11-06T19:26:30.000Z,1.80
2022-11-06T19:28:35.850Z,1.25
2022-11-06T19:30:37.699Z,1.70
2022-11-06T19:32:39.561Z,1.60
2022-11-06T19:34:41.806Z,1.15
2022-11-06T19:36:43.545Z,1.23
2022-11-06T19:38:45.283Z,1.23
2022-11-06T19:41:00.887Z,1.40
2022-11-06T19:43:03.950Z,1.73
2022-11-06T19:45:06.021Z,1.20
2022-11-06T19:47:07.711Z,1.45
2022-11-06T19:49:10.070Z,1.25
2022-11-06T19:51:13.385Z,1.45
2022-11-06T19:53:20.093Z,1.25
2022-11-06T19:55:24.786Z,1.83
2022-11-06T19:57:30.502Z,1.50
2022-11-06T19:59:32.354Z,1.50
2022-11-06T20:01:34.599Z,0.98
2022-11-06T20:03:37.051Z,1.08
2022-11-06T20:05:40.284Z,1.08
2022-11-06T20:07:42.691Z,1.23
2022-11-06T20:09:44.645Z,0.90
2022-11-06T20:11:46.320Z,1.20
2022-11-06T20:13:48.085Z,1.40
2022-11-06T20:15:49.795Z,1.00
2022-11-06T20:17:51.475Z,1.27
2022-11-06T20:19:53.102Z,1.10
2022-11-06T20:21:54.801Z,1.67
2022-11-06T20:23:57.233Z,2.28
2022-11-06T20:25:59.184Z,1.45
2022-11-06T20:28:00.950Z,2.08
2022-11-06T20:30:02.969Z,1.85
2022-11-06T20:32:04.870Z,1.52
2022-11-06T20:34:06.592Z,1.45
2022-11-06T20:36:20.880Z,1.27
2022-11-06T20:38:22.533Z,1.20
2022-11-06T20:40:27.932Z,1.30
2022-11-06T20:42:32.528Z,1.02
2022-11-06T20:44:34.205Z,1.35
2022-11-06T20:46:35.996Z,1.70
2022-11-06T20:48:37.847Z,1.88
2022-11-06T20:50:39.528Z,1.60
2022-11-06T20:52:41.243Z,2.00
2022-11-06T20:54:47.217Z,1.40
2022-11-06T20:56:50.761Z,1.17
2022-11-06T20:58:55.825Z,1.98
2022-11-06T21:01:18.097Z,1.48
2022-11-06T21:03:19.833Z,1.77
2022-11-06T21:05:21.487Z,1.58
2022-11-06T21:07:23.275Z,1.42
2022-11-06T21:09:25.171Z,1.90
2022-11-06T21:11:28.020Z,1.60
2022-11-06T21:13:30.083Z,1.60
2022-11-06T21:15:31.923Z,1.88
2022-11-06T21:17:33.621Z,1.83
2022-11-06T21:19:36.626Z,1.40
2022-11-06T21:21:38.437Z,1.20
2022-11-06T21:23:40.648Z,1.63
2022-11-06T21:25:45.191Z,1.58
2022-11-06T21:27:47.188Z,2.40
2022-11-06T21:29:48.824Z,1.90
2022-11-06T21:31:51.298Z,1.73
2022-11-06T21:33:54.865Z,1.73
2022-11-06T21:36:21.093Z,1.63
2022-11-06T21:38:22.767Z,1.40
2022-11-06T21:40:24.567Z,1.98
2022-11-06T21:42:26.405Z,1.60
2022-11-06T21:44:28.041Z,1.60
2022-11-06T21:46:29.737Z,2.50
2022-11-06T21:48:45.957Z,3.55
2022-11-06T21:50:48.326Z,2.90
2022-11-06T21:53:08.374Z,2.67
2022-11-06T21:55:29.004Z,3.28
2022-11-06T21:57:30.740Z,2.50
2022-11-06T21:59:35.149Z,2.10
2022-11-06T22:01:40.275Z,2.00
2022-11-06T22:03:42.090Z,2.78
2022-11-06T22:05:44.241Z,2.72
2022-11-06T22:07:46.086Z,3.20
2022-11-06T22:09:47.747Z,2.35
2022-11-06T22:11:49.587Z,2.88
2022-11-06T22:13:52.417Z,2.92
2022-11-06T22:15:54.090Z,2.10
2022-11-06T22:17:55.826Z,2.70
2022-11-06T22:20:00.542Z,2.58
2022-11-06T22:22:02.245Z,2.15
2022-11-06T22:24:04.599Z,2.58
2022-11-06T22:26:08.796Z,2.40
2022-11-06T22:28:10.477Z,2.22
2022-11-06T22:30:12.611Z,2.60
2022-11-06T22:32:14.334Z,3.28
2022-11-06T22:34:16.051Z,1.95
2022-11-06T22:36:18.207Z,2.83
2022-11-06T22:38:19.892Z,2.15
2022-11-06T22:40:21.548Z,2.83
2022-11-06T22:42:23.256Z,2.20
2022-11-06T22:44:24.885Z,2.05
2022-11-06T22:46:27.330Z,1.98
2022-11-06T22:48:30.132Z,2.10
2022-11-06T22:50:31.734Z,2.17
2022-11-06T22:52:33.374Z,2.00
2022-11-06T22:54:36.006Z,2.50
2022-11-06T22:56:37.643Z,2.88
2022-11-06T22:58:40.131Z,2.28
2022-11-06T23:00:41.767Z,1.90
2022-11-06T23:02:43.545Z,2.05
2022-11-06T23:04:45.205Z,2.15
2022-11-06T23:06:46.877Z,1.80
2022-11-06T23:08:48.732Z,2.00
2022-11-06T23:10:50.484Z,2.10
2022-11-06T23:12:53.114Z,1.70
2022-11-06T23:14:54.914Z,1.35
2022-11-06T23:17:00.845Z,2.13
2022-11-06T23:19:02.840Z,2.05
2022-11-06T23:21:17.795Z,2.35
2022-11-06T23:23:19.467Z,1.88
2022-11-06T23:25:24.407Z,1.90
2022-11-06T23:27:26.303Z,2.15
2022-11-06T23:29:27.932Z,2.42
2022-11-06T23:31:29.696Z,1.98
2022-11-06T23:33:31.361Z,1.80
2022-11-06T23:35:33.010Z,1.95
2022-11-06T23:37:35.058Z,2.53
2022-11-06T23:39:36.733Z,2.10
2022-11-06T23:41:45.769Z,2.47
2022-11-06T23:43:50.802Z,2.70
2022-11-06T23:45:52.483Z,2.42
2022-11-06T23:47:54.183Z,2.08
2022-11-06T23:49:56.072Z,2.47
2022-11-06T23:51:57.769Z,2.00
2022-11-06T23:53:59.481Z,1.98
2022-11-06T23:56:06.383Z,2.47
2022-11-06T23:58:08.192Z,1.92
